Time;durP1;ratioP1;P1;durP2;ratioP2;P2;SDS_P1;SDS_P2;PMS_P1;PMS_P2;Temp;Humidity;BMP_temperature;BMP_pressure;BME280_temperature;BME280_humidity;BME280_pressure;Samples;Min_cycle;Max_cycle;Signal;HPM_P1;HPM_P2
2022/05/02 00:01:23;;;;;;;19.35;12.00;;;;;;;9.92;85.77;101021.66;8357876;28;20041;-60
2022/05/02 00:05:23;;;;;;;19.13;12.50;;;;;;;10.14;84.97;101006.44;8356702;28;20090;-60
2022/05/02 00:09:23;;;;;;;24.20;13.27;;;;;;;10.05;85.87;101008.03;8356324;28;20116;-60
2022/05/02 00:13:24;;;;;;;20.52;12.65;;;;;;;9.94;86.63;100998.09;8372009;28;20397;-59
2022/05/02 00:17:56;;;;;;;20.25;12.98;;;;;;;9.47;88.77;100998.38;8356315;28;20044;-61
2022/05/02 00:21:45;;;;;;;18.38;12.40;;;;;;;9.60;90.35;100993.72;8350820;28;20041;-60
2022/05/02 00:25:45;;;;;;;20.00;13.18;;;;;;;9.50;89.69;100987.34;8356296;28;20052;-60
2022/05/02 00:29:46;;;;;;;21.48;13.50;;;;;;;9.54;91.40;100982.53;8373199;28;20025;-60
2022/05/02 00:33:46;;;;;;;18.23;12.32;;;;;;;9.68;89.34;100987.69;8353751;28;20047;-61
2022/05/02 00:37:47;;;;;;;23.67;13.77;;;;;;;9.82;89.08;100971.22;8354926;28;20131;-61
2022/05/02 00:41:48;;;;;;;21.80;14.48;;;;;;;9.43;93.74;100980.69;8351287;28;20049;-61
2022/05/02 00:45:49;;;;;;;24.33;14.75;;;;;;;9.81;90.74;100974.91;8353658;28;20159;-61
2022/05/02 00:49:50;;;;;;;25.77;13.80;;;;;;;9.73;89.85;100972.00;8354934;28;20090;-61
2022/05/02 00:53:51;;;;;;;22.42;13.30;;;;;;;9.72;89.23;100964.84;8356571;28;20082;-61
2022/05/02 00:57:53;;;;;;;22.40;12.98;;;;;;;9.76;88.99;100966.34;8351022;28;20041;-61
2022/05/02 01:01:53;;;;;;;20.67;12.85;;;;;;;9.93;88.49;100968.50;8355584;28;20547;-61
2022/05/02 01:07:11;;;;;;;24.63;13.93;;;;;;;9.94;88.79;100959.41;8357216;28;20378;-61
2022/05/02 01:10:18;;;;;;;25.52;13.35;;;;;;;9.91;89.98;100955.13;8351952;28;20033;-61
2022/05/02 01:14:19;;;;;;;20.83;13.90;;;;;;;9.84;90.69;100959.31;8356409;28;20044;-61
2022/05/02 01:18:19;;;;;;;20.85;12.80;;;;;;;10.03;89.88;100955.97;8357517;28;20036;-61
2022/05/02 01:22:20;;;;;;;20.90;13.33;;;;;;;10.03;89.82;100954.13;8334679;28;20040;-61
2022/05/02 01:26:21;;;;;;;21.52;12.73;;;;;;;9.97;90.54;100953.75;8361838;28;20291;-61
2022/05/02 01:30:21;;;;;;;25.75;14.18;;;;;;;9.97;90.45;100945.66;8361075;28;20470;-61
2022/05/02 01:34:22;;;;;;;21.33;13.30;;;;;;;10.09;89.16;100941.97;8361064;28;20059;-61
2022/05/02 01:38:22;;;;;;;24.25;13.98;;;;;;;9.93;91.42;100936.09;8361594;28;20592;-61
2022/05/02 01:42:22;;;;;;;23.85;13.48;;;;;;;10.05;89.44;100937.78;8362430;28;20133;-61
2022/05/02 01:46:23;;;;;;;21.90;14.45;;;;;;;9.90;92.45;100937.22;8356136;28;20036;-61
2022/05/02 01:50:23;;;;;;;21.77;13.77;;;;;;;9.96;91.30;100931.31;8360846;28;20103;-61
2022/05/02 01:54:25;;;;;;;20.10;12.77;;;;;;;10.21;87.98;100929.31;8360064;28;20037;-61
2022/05/02 01:58:25;;;;;;;21.58;13.43;;;;;;;10.11;87.95;100934.63;8360990;28;20291;-61
2022/05/02 02:02:25;;;;;;;20.73;13.82;;;;;;;9.91;90.04;100932.66;8361411;28;20084;-60
2022/05/02 02:06:26;;;;;;;18.15;13.32;;;;;;;9.96;90.12;100930.44;8360079;28;20033;-59
2022/05/02 02:10:27;;;;;;;24.63;14.23;;;;;;;10.06;88.57;100931.41;8360352;28;20033;-60
2022/05/02 02:14:27;;;;;;;25.23;15.40;;;;;;;9.93;90.01;100936.09;8359081;28;20249;-60
2022/05/02 02:18:28;;;;;;;24.73;14.60;;;;;;;9.88;90.74;100931.06;8358816;28;20401;-60
2022/05/02 02:22:28;;;;;;;24.02;14.88;;;;;;;9.92;91.69;100926.28;8360346;28;20056;-60
2022/05/02 02:26:29;;;;;;;22.13;14.18;;;;;;;10.02;91.60;100925.41;8359177;28;20028;-59
2022/05/02 02:30:29;;;;;;;25.73;14.43;;;;;;;10.05;91.62;100921.59;8361349;28;20087;-60
2022/05/02 02:34:30;;;;;;;21.77;14.20;;;;;;;9.94;92.13;100927.88;8360116;28;20064;-60
2022/05/02 02:38:31;;;;;;;19.95;12.88;;;;;;;9.78;94.88;100932.81;8360931;28;20045;-60
2022/05/02 02:42:31;;;;;;;23.95;14.18;;;;;;;9.68;94.63;100915.66;8359348;28;20116;-59
2022/05/02 02:46:31;;;;;;;21.93;14.57;;;;;;;9.60;96.70;100917.25;8358888;28;20033;-60
2022/05/02 02:50:32;;;;;;;28.27;15.38;;;;;;;9.76;94.56;100917.75;8360120;28;20274;-60
2022/05/02 02:54:32;;;;;;;25.77;15.00;;;;;;;9.88;91.90;100916.72;8341258;28;20033;-60
2022/05/02 02:58:33;;;;;;;21.33;14.20;;;;;;;10.02;91.24;100903.81;8359700;28;20116;-60
2022/05/02 03:02:37;;;;;;;25.60;15.00;;;;;;;9.92;92.10;100896.59;8359876;28;20063;-60
2022/05/02 03:06:37;;;;;;;25.05;15.13;;;;;;;9.76;93.54;100907.78;8360131;28;20036;-60
2022/05/02 03:10:38;;;;;;;24.35;14.98;;;;;;;9.74;94.75;100903.50;8358935;28;20063;-60
2022/05/02 03:14:38;;;;;;;27.83;16.75;;;;;;;9.65;98.00;100898.84;8358429;28;20460;-60
2022/05/02 03:18:38;;;;;;;28.90;15.60;;;;;;;9.90;93.16;100893.16;8358254;28;20032;-60
2022/05/02 03:22:39;;;;;;;24.30;15.32;;;;;;;9.94;92.93;100897.28;8357237;28;20516;-60
2022/05/02 03:26:39;;;;;;;23.70;15.35;;;;;;;9.81;94.12;100885.81;8357916;28;20078;-60
2022/05/02 03:30:40;;;;;;;24.65;16.02;;;;;;;9.76;95.42;100890.75;8356575;28;20461;-60
2022/05/02 03:34:40;;;;;;;29.13;17.20;;;;;;;9.81;95.11;100883.97;8357817;28;20029;-60
2022/05/02 03:38:41;;;;;;;26.58;17.45;;;;;;;9.85;93.47;100874.63;8357766;28;20112;-60
2022/05/02 03:42:41;;;;;;;28.67;17.10;;;;;;;9.75;94.70;100886.31;8357250;28;20041;-60
2022/05/02 03:46:42;;;;;;;31.10;19.08;;;;;;;9.90;93.03;100877.81;8358519;28;20120;-60
2022/05/02 03:50:42;;;;;;;31.60;19.38;;;;;;;9.95;92.49;100885.53;8357406;28;20041;-60
2022/05/02 03:54:43;;;;;;;36.15;19.73;;;;;;;9.89;93.94;100883.34;8357567;28;20037;-60
2022/05/02 03:58:43;;;;;;;32.25;19.85;;;;;;;9.75;94.96;100883.59;8357172;28;20032;-60
2022/05/02 04:02:43;;;;;;;32.78;19.23;;;;;;;9.71;95.53;100876.75;8350681;28;20701;-60
2022/05/02 04:06:44;;;;;;;33.63;20.35;;;;;;;9.72;96.18;100889.25;8358508;28;20029;-60
2022/05/02 04:10:44;;;;;;;35.47;19.98;;;;;;;9.54;96.07;100888.94;8388840;28;20409;-60
2022/05/02 04:14:45;;;;;;;36.88;22.40;;;;;;;9.63;96.43;100895.41;8351690;28;20033;-60
2022/05/02 04:18:45;;;;;;;36.55;21.08;;;;;;;9.51;97.27;100891.00;8356521;28;20044;-59
2022/05/02 04:22:46;;;;;;;32.65;21.15;;;;;;;9.58;98.23;100894.94;8354693;28;20029;-59
2022/05/02 04:26:46;;;;;;;33.45;20.17;;;;;;;9.84;96.56;100885.56;8362748;28;20032;-59
2022/05/02 04:30:47;;;;;;;37.35;21.13;;;;;;;9.86;96.38;100886.28;8355289;28;20493;-59
2022/05/02 04:34:47;;;;;;;32.63;20.20;;;;;;;9.94;95.38;100890.06;8356367;28;20048;-60
2022/05/02 04:38:47;;;;;;;34.83;19.90;;;;;;;10.07;94.41;100889.94;8354725;28;20037;-60
2022/05/02 04:42:48;;;;;;;38.30;19.27;;;;;;;10.02;95.42;100897.53;8354568;28;20274;-60
2022/05/02 04:46:49;;;;;;;34.45;20.80;;;;;;;9.95;97.01;100893.63;8355532;28;20148;-60
2022/05/02 04:50:49;;;;;;;31.83;20.23;;;;;;;9.98;96.28;100901.47;8354544;28;20040;-59
2022/05/02 04:54:50;;;;;;;32.35;20.80;;;;;;;9.94;95.78;100894.59;8346179;28;20061;-60
2022/05/02 04:58:50;;;;;;;34.55;20.55;;;;;;;10.01;95.89;100899.38;8357009;28;20029;-59
2022/05/02 05:02:51;;;;;;;32.42;18.77;;;;;;;9.89;94.89;100892.28;8359419;28;20128;-60
2022/05/02 05:06:52;;;;;;;36.00;21.55;;;;;;;9.90;94.76;100893.16;8360310;28;20037;-60
2022/05/02 05:11:20;;;;;;;37.00;20.65;;;;;;;9.86;95.58;100886.28;8362304;28;20497;-60
2022/05/02 05:16:44;;;;;;;35.88;21.08;;;;;;;10.07;95.04;100895.34;8360612;28;20033;-59
2022/05/02 05:20:14;;;;;;;33.83;21.13;;;;;;;10.27;93.73;100902.63;8356709;28;20124;-60
2022/05/02 05:29:04;;;;;;;34.58;20.08;;;;;;;10.51;93.61;100900.53;8389418;27;20407;-59
2022/05/02 05:33:35;;;;;;;34.40;20.65;;;;;;;10.67;93.53;100894.69;8358816;28;20044;-61
2022/05/02 05:38:00;;;;;;;34.42;20.45;;;;;;;10.93;92.98;100899.56;8367272;27;20412;-62
2022/05/02 05:42:20;;;;;;;36.00;20.35;;;;;;;11.03;92.81;100896.88;8352004;28;20060;-62
2022/05/02 05:46:42;;;;;;;33.13;20.83;;;;;;;11.10;91.68;100898.91;8380493;28;20041;-62
2022/05/02 05:50:49;;;;;;;34.03;21.10;;;;;;;11.11;88.75;100903.38;8354819;28;20045;-62
2022/05/02 05:55:06;;;;;;;29.95;20.02;;;;;;;11.25;89.74;100899.41;8357501;27;20094;-62
2022/05/02 05:59:10;;;;;;;44.33;21.95;;;;;;;11.40;89.33;100901.63;8371835;28;20063;-62
2022/05/02 06:03:16;;;;;;;46.13;20.50;;;;;;;11.50;89.66;100894.38;8355189;28;20037;-62
2022/05/02 06:07:18;;;;;;;40.50;21.70;;;;;;;11.62;88.41;100901.44;8357682;27;20048;-62
2022/05/02 06:11:21;;;;;;;39.20;20.30;;;;;;;11.67;86.09;100898.34;8338407;28;20065;-62
2022/05/02 06:19:47;;;;;;;42.88;21.77;;;;;;;12.01;85.92;100906.97;8357178;28;20033;-62
2022/05/02 06:23:50;;;;;;;32.80;20.00;;;;;;;12.13;82.78;100895.00;8374868;28;20036;-63
2022/05/02 06:27:52;;;;;;;41.20;22.05;;;;;;;12.44;84.34;100899.31;8368377;28;20579;-62
2022/05/02 06:31:54;;;;;;;32.80;19.92;;;;;;;12.33;82.31;100891.31;8366466;28;20043;-62
2022/05/02 06:36:29;;;;;;;37.33;21.25;;;;;;;12.52;84.41;100903.00;8356849;28;20032;-62
2022/05/02 06:40:41;;;;;;;33.75;19.98;;;;;;;12.52;82.70;100907.56;8323468;28;20091;-62
2022/05/02 06:45:18;;;;;;;34.70;20.55;;;;;;;12.36;83.73;100907.28;8339952;28;20583;-62
2022/05/02 06:49:19;;;;;;;37.63;20.17;;;;;;;12.44;81.40;100910.16;8330521;28;20041;-62
2022/05/02 06:53:50;;;;;;;39.05;21.27;;;;;;;12.87;81.92;100902.41;8347616;28;20040;-62
2022/05/02 06:58:22;;;;;;;41.72;20.98;;;;;;;12.68;79.48;100908.69;8343244;28;20102;-62
2022/05/02 07:02:52;;;;;;;30.65;19.67;;;;;;;12.60;79.79;100899.56;8331337;28;20064;-62
2022/05/02 07:11:20;;;;;;;33.28;20.67;;;;;;;13.39;80.40;100904.56;8320984;27;20405;-60
2022/05/02 07:15:26;;;;;;;33.67;19.45;;;;;;;13.40;76.89;100911.69;8343455;28;20043;-60
2022/05/02 07:19:40;;;;;;;35.03;19.08;;;;;;;13.32;76.93;100912.44;8332530;28;20140;-61
2022/05/02 07:24:07;;;;;;;33.57;20.07;;;;;;;13.34;76.72;100918.59;8367531;28;20049;-61
2022/05/02 07:28:29;;;;;;;38.05;20.08;;;;;;;13.63;75.00;100915.72;8338861;28;20037;-61
2022/05/02 07:32:32;;;;;;;30.02;19.67;;;;;;;14.34;76.64;100909.44;8344324;28;20146;-61
2022/05/02 07:36:34;;;;;;;31.30;20.10;;;;;;;14.52;73.43;100910.28;8318641;28;20502;-61
2022/05/02 07:40:37;;;;;;;32.45;19.80;;;;;;;14.16;74.08;100914.00;8343540;28;20041;-61
2022/05/02 07:44:38;;;;;;;29.75;18.73;;;;;;;14.86;72.68;100916.72;8345176;28;20044;-61
2022/05/02 07:48:42;;;;;;;36.45;19.52;;;;;;;14.70;72.00;100913.00;8328131;28;20041;-61
2022/05/02 07:52:44;;;;;;;35.90;20.33;;;;;;;14.47;73.42;100914.50;8344946;28;20053;-61
2022/05/02 07:56:49;;;;;;;28.13;18.75;;;;;;;14.37;72.34;100913.72;8343078;28;20545;-61
2022/05/02 08:00:49;;;;;;;33.88;19.33;;;;;;;14.48;72.42;100914.34;8342930;28;20536;-61
2022/05/02 08:04:52;;;;;;;31.40;20.17;;;;;;;14.78;73.65;100908.47;8339148;28;20461;-61
2022/05/02 08:13:43;;;;;;;32.17;18.35;;;;;;;15.47;70.84;100903.84;8334066;27;20781;-60
2022/05/02 08:18:10;;;;;;;30.77;19.98;;;;;;;16.02;72.82;100901.53;8328156;28;20050;-60
2022/05/02 08:27:22;;;;;;;27.95;17.08;;;;;;;16.81;69.07;100893.66;8309821;28;20041;-61
2022/05/02 08:31:55;;;;;;;25.17;16.10;;;;;;;16.03;67.54;100896.91;8307783;28;20072;-61
2022/05/02 08:36:01;;;;;;;32.17;18.67;;;;;;;16.50;68.58;100896.19;8312312;28;20049;-61
2022/05/02 08:44:50;;;;;;;24.90;15.82;;;;;;;16.09;65.88;100885.34;8257194;28;20787;-61
2022/05/02 08:49:48;;;;;;;26.23;15.57;;;;;;;16.36;66.52;100893.25;8226880;28;20117;-61
2022/05/02 08:54:17;;;;;;;29.80;15.38;;;;;;;16.56;64.32;100886.47;8235820;28;20527;-61
2022/05/02 08:58:58;;;;;;;26.20;15.95;;;;;;;16.94;65.07;100883.03;8230132;28;20073;-61
2022/05/02 09:03:36;;;;;;;19.30;14.48;;;;;;;17.13;65.87;100885.41;8213977;28;21147;-62
2022/05/02 09:08:08;;;;;;;24.85;15.63;;;;;;;17.26;66.65;100885.75;8219143;28;20522;-62
2022/05/02 09:12:35;;;;;;;25.05;15.75;;;;;;;17.32;65.24;100887.75;8218565;28;20031;-61
2022/05/02 09:17:07;;;;;;;25.98;14.48;;;;;;;17.36;64.56;100875.44;8214310;28;20049;-61
2022/05/02 09:21:47;;;;;;;23.35;15.30;;;;;;;18.44;65.76;100876.31;8233533;28;20045;-61
2022/05/02 09:34:57;;;;;;;19.90;11.80;;;;;;;18.15;61.75;100870.69;8291454;28;20435;-61
2022/05/02 09:39:10;;;;;;;18.70;13.00;;;;;;;18.22;61.22;100862.56;8283058;28;20049;-61
2022/05/02 09:49:35;;;;;;;25.38;12.80;;;;;;;20.12;57.10;100859.03;8276564;28;20116;-61
2022/05/02 09:53:16;;;;;;;23.92;12.18;;;;;;;22.90;54.06;100847.25;8281305;28;20061;-61
2022/05/02 09:57:22;;;;;;;19.08;11.20;;;;;;;22.60;49.63;100854.22;8284463;28;20049;-61
2022/05/02 10:01:27;;;;;;;20.33;12.50;;;;;;;22.90;49.27;100846.38;8282458;28;20034;-61
2022/05/02 10:05:46;;;;;;;16.52;10.75;;;;;;;23.50;49.05;100835.09;8276627;28;20091;-61
2022/05/02 10:10:11;;;;;;;17.52;9.85;;;;;;;24.36;47.26;100839.19;8277678;28;20041;-61
2022/05/02 10:14:51;;;;;;;15.82;10.48;;;;;;;23.96;48.84;100843.22;8274337;28;20121;-61
2022/05/02 10:19:13;;;;;;;14.60;11.43;;;;;;;24.00;47.05;100828.75;8257350;28;20034;-61
2022/05/02 10:28:09;;;;;;;18.17;11.95;;;;;;;24.00;46.71;100826.00;8381288;27;20387;-61
2022/05/02 10:32:24;;;;;;;18.60;11.30;;;;;;;25.40;45.88;100827.28;8377153;28;20040;-61
2022/05/02 10:36:35;;;;;;;16.83;12.25;;;;;;;24.81;43.92;100827.84;8376126;28;20041;-61
2022/05/02 10:40:40;;;;;;;16.92;12.13;;;;;;;24.73;43.81;100827.28;8345813;28;20533;-61
2022/05/02 10:44:56;;;;;;;18.65;13.07;;;;;;;25.07;44.05;100821.25;8366781;28;20048;-61
2022/05/02 10:49:08;;;;;;;13.95;10.45;;;;;;;24.74;44.44;100817.91;8376503;28;20044;-61
2022/05/02 10:53:48;;;;;;;15.45;10.57;;;;;;;25.38;43.83;100814.75;8341059;28;20072;-61
2022/05/02 10:57:55;;;;;;;17.15;11.60;;;;;;;25.18;42.95;100823.25;8351300;28;20045;-61
2022/05/02 11:07:11;;;;;;;21.63;10.93;;;;;;;24.74;44.48;100812.38;8300748;28;20401;-63
2022/05/02 11:11:36;;;;;;;16.08;10.23;;;;;;;24.35;44.88;100804.34;8289309;28;20128;-60
2022/05/02 11:15:54;;;;;;;15.45;10.25;;;;;;;26.02;44.35;100799.31;8309950;28;20041;-61
2022/05/02 11:21:07;;;;;;;18.10;10.65;;;;;;;26.14;42.77;100791.84;8308138;28;20459;-61
2022/05/02 11:29:38;;;;;;;13.65;9.05;;;;;;;25.88;44.72;100786.66;8330847;27;20892;-61
2022/05/02 11:34:04;;;;;;;15.05;10.18;;;;;;;26.86;43.92;100778.81;8321848;28;20072;-61
2022/05/02 11:42:21;;;;;;;13.57;9.98;;;;;;;23.14;46.52;100783.16;8403302;27;20439;-60
2022/05/02 11:46:24;;;;;;;17.73;10.35;;;;;;;20.79;51.47;100783.44;8369638;28;20063;-62
2022/05/02 11:50:26;;;;;;;15.38;10.90;;;;;;;19.92;52.93;100776.50;8359878;28;20068;-62
2022/05/02 11:58:56;;;;;;;18.70;11.10;;;;;;;21.14;52.79;100779.72;8325959;27;20427;-60
2022/05/02 12:03:22;;;;;;;13.15;10.73;;;;;;;20.91;52.25;100773.59;8312131;28;20091;-60
2022/05/02 12:07:31;;;;;;;14.88;10.98;;;;;;;20.79;51.77;100780.69;8374263;28;20515;-60
2022/05/02 12:11:32;;;;;;;14.80;11.77;;;;;;;20.46;51.82;100774.13;8330895;28;20047;-60
2022/05/02 12:15:33;;;;;;;14.40;10.70;;;;;;;20.90;52.18;100771.91;8318042;28;20041;-60
2022/05/02 12:19:34;;;;;;;17.80;11.52;;;;;;;21.17;52.84;100763.66;8310194;28;20395;-60
2022/05/02 12:23:37;;;;;;;18.80;11.77;;;;;;;21.57;51.96;100759.19;8309527;28;20073;-61
2022/05/02 12:27:37;;;;;;;18.83;12.35;;;;;;;21.98;53.56;100756.38;8321766;28;20528;-61
2022/05/02 12:31:38;;;;;;;18.10;12.13;;;;;;;21.18;51.13;100759.00;8337221;28;20832;-61
2022/05/02 12:35:42;;;;;;;17.30;11.27;;;;;;;21.13;52.12;100751.38;8334041;28;20038;-61
2022/05/02 12:39:49;;;;;;;26.50;12.60;;;;;;;20.69;51.89;100747.22;8306770;28;20108;-61
2022/05/02 12:43:54;;;;;;;16.38;11.45;;;;;;;20.67;52.96;100743.81;8318961;28;20033;-61
2022/05/02 12:47:59;;;;;;;16.77;11.88;;;;;;;20.33;52.80;100741.00;8307333;28;20457;-61
2022/05/02 12:52:04;;;;;;;18.38;12.23;;;;;;;20.16;53.30;100739.59;8305752;28;20778;-62
2022/05/02 12:56:06;;;;;;;16.70;10.25;;;;;;;20.20;53.49;100738.16;8306954;28;20057;-62
2022/05/02 13:00:31;;;;;;;18.38;11.00;;;;;;;20.31;54.45;100726.66;8304980;28;20777;-63
2022/05/02 13:04:34;;;;;;;15.48;10.48;;;;;;;20.43;55.33;100731.38;8308883;28;20095;-63
2022/05/02 13:08:41;;;;;;;12.73;10.07;;;;;;;20.55;54.80;100717.94;8295889;28;20057;-63
2022/05/02 13:17:13;;;;;;;21.77;12.13;;;;;;;20.23;53.81;100713.06;8281386;28;20388;-62
2022/05/02 13:21:16;;;;;;;14.88;10.57;;;;;;;20.13;55.42;100712.53;8271789;28;20039;-62
2022/05/02 13:25:18;;;;;;;18.27;11.63;;;;;;;20.10;54.89;100707.41;8271970;28;20038;-61
2022/05/02 13:29:28;;;;;;;17.20;11.70;;;;;;;19.85;53.39;100708.88;8278419;28;20378;-62
2022/05/02 13:33:35;;;;;;;14.48;9.85;;;;;;;20.02;53.37;100704.78;8288689;28;20115;-62
2022/05/02 13:37:49;;;;;;;18.48;12.05;;;;;;;20.24;53.29;100690.03;8291969;28;20133;-64
2022/05/02 13:41:59;;;;;;;17.63;10.73;;;;;;;20.63;56.96;100693.06;8308753;28;20073;-64
2022/05/02 13:50:18;;;;;;;15.68;10.75;;;;;;;20.23;53.06;100685.59;8429680;27;20118;-62
2022/05/02 13:54:28;;;;;;;17.55;10.75;;;;;;;20.69;57.17;100670.28;8428610;28;20036;-62
2022/05/02 13:59:08;;;;;;;18.20;9.82;;;;;;;20.88;55.23;100662.16;8421047;28;20040;-63
2022/05/02 14:03:52;;;;;;;16.35;9.55;;;;;;;21.08;53.08;100662.28;8435271;28;20043;-62
2022/05/02 14:07:54;;;;;;;15.57;9.73;;;;;;;20.80;52.07;100664.25;8414423;28;20040;-60
2022/05/02 14:11:55;;;;;;;16.45;10.80;;;;;;;20.71;51.45;100668.19;8436177;28;20168;-61
2022/05/02 14:16:04;;;;;;;13.57;9.95;;;;;;;21.04;55.30;100663.72;8437116;28;20052;-62
2022/05/02 14:20:29;;;;;;;13.73;9.40;;;;;;;20.90;51.53;100656.47;8435728;28;20047;-61
2022/05/02 14:24:42;;;;;;;14.75;10.02;;;;;;;20.67;51.29;100655.91;8423358;28;20488;-61
2022/05/02 14:28:45;;;;;;;15.25;9.52;;;;;;;20.92;51.04;100643.38;8381225;28;20032;-62
2022/05/02 14:32:46;;;;;;;13.93;9.33;;;;;;;21.21;53.42;100646.69;8411586;28;20058;-62
2022/05/02 14:36:46;;;;;;;14.50;10.40;;;;;;;21.08;51.17;100637.53;8411671;28;20040;-62
2022/05/02 14:40:47;;;;;;;16.63;9.80;;;;;;;21.10;53.41;100639.03;8430453;28;20048;-62
2022/05/02 14:44:47;;;;;;;13.02;10.52;;;;;;;20.74;52.10;100638.38;8427493;28;20051;-62
2022/05/02 14:48:48;;;;;;;17.55;11.60;;;;;;;20.27;52.35;100631.97;8425446;28;20416;-62
2022/05/02 14:52:49;;;;;;;17.88;10.70;;;;;;;20.49;52.38;100633.63;8409729;28;20500;-62
2022/05/02 14:56:51;;;;;;;15.35;9.65;;;;;;;20.95;51.95;100637.50;8428234;28;20056;-62
2022/05/02 15:00:56;;;;;;;12.65;10.05;;;;;;;20.63;51.65;100633.50;8407989;28;20449;-62
2022/05/02 15:05:03;;;;;;;12.40;9.00;;;;;;;20.65;52.33;100625.03;8355792;28;20093;-62
2022/05/02 15:10:35;;;;;;;15.20;9.10;;;;;;;20.51;51.83;100629.59;8386307;28;20032;-62
2022/05/02 15:19:57;;;;;;;14.48;10.07;;;;;;;20.26;51.73;100624.78;8323691;27;20777;-61
2022/05/02 15:23:17;;;;;;;15.38;10.20;;;;;;;20.41;52.16;100628.28;8297080;28;20049;-62
2022/05/02 15:36:39;;;;;;;15.95;10.57;;;;;;;20.40;52.36;100616.44;8285303;28;20049;-62
2022/05/02 15:36:48;;;;;;;14.43;9.27;;;;;;;20.49;51.30;100614.38;8302226;28;20034;-62
2022/05/02 15:40:48;;;;;;;14.90;10.73;;;;;;;20.23;51.41;100603.22;8320061;28;20052;-62
2022/05/02 15:44:50;;;;;;;12.52;9.73;;;;;;;20.37;52.08;100610.50;8301120;28;20487;-62
2022/05/02 15:49:05;;;;;;;13.70;11.00;;;;;;;20.41;51.44;100606.28;8303174;28;20088;-62
2022/05/02 15:53:21;;;;;;;15.00;10.05;;;;;;;20.37;51.99;100605.00;8298964;28;20038;-62
2022/05/02 16:01:56;;;;;;;18.48;11.25;;;;;;;20.39;51.20;100597.41;8291766;28;20410;-62
2022/05/02 16:06:18;;;;;;;16.63;9.55;;;;;;;20.45;51.20;100594.69;8282886;28;20071;-63
2022/05/02 16:10:32;;;;;;;14.02;9.30;;;;;;;20.29;52.06;100594.19;8285069;28;20045;-62
2022/05/02 16:14:39;;;;;;;18.00;9.50;;;;;;;20.46;51.52;100593.66;8277319;28;20072;-62
2022/05/02 16:18:41;;;;;;;18.85;10.45;;;;;;;20.26;51.50;100591.81;8284062;28;20052;-62
2022/05/02 16:22:43;;;;;;;16.60;9.35;;;;;;;20.25;52.01;100590.16;8284013;28;20045;-63
2022/05/02 16:26:53;;;;;;;15.85;10.15;;;;;;;20.19;51.99;100585.47;8280023;28;20136;-63
2022/05/02 16:31:02;;;;;;;17.45;10.00;;;;;;;20.17;52.42;100593.03;8285505;28;20049;-62
2022/05/02 16:35:21;;;;;;;18.52;10.23;;;;;;;20.26;51.82;100592.69;8289803;28;20425;-63
2022/05/02 16:39:21;;;;;;;15.90;10.25;;;;;;;20.20;52.15;100587.13;8296455;28;20042;-63
2022/05/02 16:43:24;;;;;;;15.57;10.02;;;;;;;20.07;51.95;100582.34;8281408;28;20054;-63
2022/05/02 16:47:24;;;;;;;13.57;9.77;;;;;;;20.07;52.06;100581.53;8279828;28;20045;-62
2022/05/02 16:51:26;;;;;;;14.03;8.77;;;;;;;20.04;52.30;100581.94;8280577;28;20081;-62
2022/05/02 16:55:28;;;;;;;14.38;9.85;;;;;;;19.94;52.14;100575.94;8281861;28;20776;-63
2022/05/02 16:59:32;;;;;;;13.13;8.68;;;;;;;19.91;52.67;100581.84;8284487;28;20073;-63
2022/05/02 17:03:33;;;;;;;15.25;9.95;;;;;;;19.87;52.55;100581.38;8271310;28;20041;-63
2022/05/02 17:07:38;;;;;;;11.65;9.23;;;;;;;19.75;52.74;100582.09;8290966;28;20042;-62
2022/05/02 17:11:41;;;;;;;13.50;9.70;;;;;;;19.66;52.70;100575.06;8274940;28;20046;-63
2022/05/02 17:15:43;;;;;;;12.70;8.75;;;;;;;19.64;53.34;100579.91;8273152;28;20041;-63
2022/05/02 17:19:47;;;;;;;16.20;9.93;;;;;;;19.60;53.00;100578.63;8267353;28;20376;-62
2022/05/02 17:23:49;;;;;;;20.25;10.27;;;;;;;19.54;53.03;100587.63;8265360;28;20046;-62
2022/05/02 17:27:51;;;;;;;16.08;9.40;;;;;;;19.43;53.30;100584.34;8264809;28;20453;-62
2022/05/02 17:31:56;;;;;;;12.30;9.40;;;;;;;19.39;53.42;100588.53;8261758;28;20493;-62
2022/05/02 17:36:04;;;;;;;19.08;8.73;;;;;;;19.29;53.81;100584.41;8258664;28;20038;-63
2022/05/02 17:40:21;;;;;;;13.98;8.55;;;;;;;19.23;54.06;100587.91;8256237;28;20043;-62
2022/05/02 17:44:22;;;;;;;12.45;8.57;;;;;;;19.14;53.89;100589.06;8266013;28;20128;-63
2022/05/02 17:48:25;;;;;;;16.08;9.25;;;;;;;19.05;54.50;100585.59;8270339;28;20042;-63
2022/05/02 17:52:28;;;;;;;15.23;8.10;;;;;;;18.94;54.96;100586.09;8262604;28;20503;-63
2022/05/02 17:56:36;;;;;;;14.70;8.63;;;;;;;18.82;55.43;100584.06;8268010;28;20049;-63
2022/05/02 18:00:38;;;;;;;10.98;9.40;;;;;;;18.72;55.27;100595.31;8258953;28;20614;-63
2022/05/02 18:04:51;;;;;;;14.20;9.32;;;;;;;18.65;55.55;100599.84;8255863;28;20065;-63
2022/05/02 18:09:04;;;;;;;13.48;9.05;;;;;;;18.54;55.64;100594.84;8261887;28;20379;-63
2022/05/02 18:17:33;;;;;;;21.08;9.55;;;;;;;18.32;56.24;100609.44;8385490;27;20759;-62
2022/05/02 18:21:39;;;;;;;16.35;10.15;;;;;;;18.22;56.22;100606.16;8358381;28;20059;-61
2022/05/02 18:25:44;;;;;;;15.80;9.45;;;;;;;18.14;56.60;100614.44;8360715;28;20047;-62
2022/05/02 18:29:47;;;;;;;19.35;10.40;;;;;;;18.02;56.68;100610.44;8336409;28;20700;-63
2022/05/02 18:33:51;;;;;;;13.23;10.80;;;;;;;17.90;57.01;100611.94;8364744;28;20754;-62
2022/05/02 18:38:00;;;;;;;16.58;10.95;;;;;;;17.82;57.34;100622.09;8359269;28;20155;-62
2022/05/02 18:42:07;;;;;;;17.50;10.40;;;;;;;17.69;58.12;100613.69;8315214;28;20173;-62
2022/05/02 18:54:56;;;;;;;18.60;10.65;;;;;;;17.39;58.84;100637.28;8318883;28;20811;-62
2022/05/02 18:58:58;;;;;;;18.10;10.57;;;;;;;17.32;59.23;100637.16;8321662;28;20091;-62
2022/05/02 19:03:04;;;;;;;12.85;10.73;;;;;;;17.23;59.86;100640.13;8323869;28;20045;-62
2022/05/02 19:07:09;;;;;;;19.13;11.00;;;;;;;17.16;59.81;100647.34;8318302;28;20041;-62
2022/05/02 19:11:11;;;;;;;17.80;11.38;;;;;;;17.12;59.91;100651.47;8316694;28;20037;-62
2022/05/02 19:15:13;;;;;;;13.75;10.07;;;;;;;17.12;60.05;100651.47;8322448;28;20517;-62
2022/05/02 19:19:14;;;;;;;12.93;10.00;;;;;;;17.09;59.94;100652.69;8349765;28;20047;-63
2022/05/02 19:23:28;;;;;;;15.50;10.18;;;;;;;17.16;60.47;100661.00;8320990;28;20040;-63
2022/05/02 19:27:29;;;;;;;18.67;10.27;;;;;;;16.98;60.46;100660.41;8308656;28;20116;-63
2022/05/02 19:31:31;;;;;;;13.25;10.00;;;;;;;16.93;60.64;100665.56;8300888;28;20045;-62
2022/05/02 19:40:00;;;;;;;15.18;10.15;;;;;;;16.86;60.54;100675.47;8301046;28;20049;-62
2022/05/02 19:44:27;;;;;;;14.80;10.23;;;;;;;16.83;60.64;100684.03;8304607;28;20477;-62
2022/05/02 19:48:28;;;;;;;12.05;9.75;;;;;;;16.82;60.39;100683.19;8303805;28;20042;-62
2022/05/02 19:52:29;;;;;;;14.70;11.05;;;;;;;16.86;59.86;100684.53;8307024;28;20064;-62
2022/05/02 19:56:30;;;;;;;17.00;10.65;;;;;;;16.89;59.52;100683.31;8304465;28;20046;-63
2022/05/02 20:00:31;;;;;;;17.58;10.45;;;;;;;16.79;60.06;100691.72;8300735;28;20111;-63
2022/05/02 20:04:32;;;;;;;21.60;10.88;;;;;;;16.76;60.24;100693.97;8311406;28;20381;-62
2022/05/02 20:08:34;;;;;;;19.63;11.52;;;;;;;16.72;59.94;100692.63;8299384;28;20049;-62
2022/05/02 20:12:34;;;;;;;17.85;10.75;;;;;;;16.72;60.07;100698.06;8309596;28;20085;-62
2022/05/02 20:16:35;;;;;;;15.88;10.32;;;;;;;16.76;59.46;100693.97;8307169;28;20050;-62
2022/05/02 20:20:36;;;;;;;18.80;11.18;;;;;;;16.73;59.64;100694.31;8312399;28;20045;-63
2022/05/02 20:24:37;;;;;;;18.58;11.55;;;;;;;16.72;59.71;100706.25;8314073;28;20037;-64
2022/05/02 20:28:37;;;;;;;14.50;10.63;;;;;;;16.67;60.13;100700.47;8292899;28;20038;-63
2022/05/02 20:37:04;;;;;;;18.40;11.17;;;;;;;16.67;59.74;100703.19;8301709;28;20048;-63
2022/05/02 20:41:06;;;;;;;24.17;10.90;;;;;;;16.62;59.36;100691.97;8301618;28;20347;-63